sensor_id;sensor_type;location;lat;lon;timestamp;pressure;altitude;pressure_sealevel;temperature;humidity
29941;BME280;16801;53.562;10.038;2023-04-07T00:02:24;101761.69;;;8.13;42.96
29941;BME280;16801;53.562;10.038;2023-04-07T00:05:45;101763.25;;;8.16;43.06
29941;BME280;16801;53.562;10.038;2023-04-07T00:09:08;101764.03;;;8.07;42.76
29941;BME280;16801;53.562;10.038;2023-04-07T00:12:29;101760.69;;;8.05;42.50
29941;BME280;16801;53.562;10.038;2023-04-07T00:15:49;101757.56;;;7.90;42.83
29941;BME280;16801;53.562;10.038;2023-04-07T00:19:11;101753.44;;;7.97;43.10
29941;BME280;16801;53.562;10.038;2023-04-07T00:22:31;101752.44;;;7.88;42.72
29941;BME280;16801;53.562;10.038;2023-04-07T00:25:53;101751.88;;;7.85;43.89
29941;BME280;16801;53.562;10.038;2023-04-07T00:29:14;101757.94;;;7.85;43.10
29941;BME280;16801;53.562;10.038;2023-04-07T00:32:35;101760.47;;;7.87;43.46
29941;BME280;16801;53.562;10.038;2023-04-07T00:35:56;101752.44;;;7.88;43.35
29941;BME280;16801;53.562;10.038;2023-04-07T00:39:17;101759.88;;;7.83;43.23
29941;BME280;16801;53.562;10.038;2023-04-07T00:42:41;101751.06;;;7.73;43.20
29941;BME280;16801;53.562;10.038;2023-04-07T00:46:02;101757.41;;;7.71;43.57
29941;BME280;16801;53.562;10.038;2023-04-07T00:49:23;101753.13;;;7.70;43.74
29941;BME280;16801;53.562;10.038;2023-04-07T00:52:46;101753.25;;;7.68;43.58
29941;BME280;16801;53.562;10.038;2023-04-07T00:56:07;101759.75;;;7.64;43.70
29941;BME280;16801;53.562;10.038;2023-04-07T00:59:30;101757.50;;;7.60;43.32
29941;BME280;16801;53.562;10.038;2023-04-07T01:02:57;101752.34;;;7.58;43.73
29941;BME280;16801;53.562;10.038;2023-04-07T01:06:24;101747.09;;;7.58;44.60
29941;BME280;16801;53.562;10.038;2023-04-07T01:09:52;101747.69;;;7.62;44.03
29941;BME280;16801;53.562;10.038;2023-04-07T01:13:22;101747.94;;;7.59;44.66
29941;BME280;16801;53.562;10.038;2023-04-07T01:16:50;101755.34;;;7.53;44.53
29941;BME280;16801;53.562;10.038;2023-04-07T01:20:16;101755.97;;;7.46;44.27
29941;BME280;16801;53.562;10.038;2023-04-07T01:23:51;101752.22;;;7.28;44.78
29941;BME280;16801;53.562;10.038;2023-04-07T01:27:27;101751.50;;;7.37;44.47
29941;BME280;16801;53.562;10.038;2023-04-07T01:30:55;101747.19;;;7.36;44.90
29941;BME280;16801;53.562;10.038;2023-04-07T01:34:18;101752.00;;;7.31;44.97
29941;BME280;16801;53.562;10.038;2023-04-07T01:37:40;101757.72;;;7.25;45.29
29941;BME280;16801;53.562;10.038;2023-04-07T01:41:02;101748.94;;;7.14;45.00
29941;BME280;16801;53.562;10.038;2023-04-07T01:44:23;101748.13;;;7.14;45.29
29941;BME280;16801;53.562;10.038;2023-04-07T01:47:47;101756.59;;;7.17;45.37
29941;BME280;16801;53.562;10.038;2023-04-07T01:51:09;101757.53;;;7.16;45.82
29941;BME280;16801;53.562;10.038;2023-04-07T01:54:36;101748.13;;;7.14;45.64
29941;BME280;16801;53.562;10.038;2023-04-07T01:57:57;101755.75;;;7.06;45.65
29941;BME280;16801;53.562;10.038;2023-04-07T02:01:18;101758.75;;;7.01;46.07
29941;BME280;16801;53.562;10.038;2023-04-07T02:04:46;101754.34;;;7.02;46.23
29941;BME280;16801;53.562;10.038;2023-04-07T02:08:11;101753.50;;;7.01;46.27
29941;BME280;16801;53.562;10.038;2023-04-07T02:11:35;101758.06;;;6.99;46.31
29941;BME280;16801;53.562;10.038;2023-04-07T02:14:59;101755.22;;;6.91;45.94
29941;BME280;16801;53.562;10.038;2023-04-07T02:18:20;101760.09;;;6.84;46.37
29941;BME280;16801;53.562;10.038;2023-04-07T02:21:44;101757.72;;;6.81;46.29
29941;BME280;16801;53.562;10.038;2023-04-07T02:25:20;101756.16;;;6.79;45.86
29941;BME280;16801;53.562;10.038;2023-04-07T02:28:41;101758.09;;;6.66;46.81
29941;BME280;16801;53.562;10.038;2023-04-07T02:32:03;101766.56;;;6.69;46.62
29941;BME280;16801;53.562;10.038;2023-04-07T02:35:24;101760.72;;;6.66;47.21
29941;BME280;16801;53.562;10.038;2023-04-07T02:38:47;101764.31;;;6.65;46.89
29941;BME280;16801;53.562;10.038;2023-04-07T02:42:07;101770.75;;;6.72;46.11
29941;BME280;16801;53.562;10.038;2023-04-07T02:45:28;101774.78;;;6.65;46.09
29941;BME280;16801;53.562;10.038;2023-04-07T02:48:50;101784.47;;;6.53;46.59
29941;BME280;16801;53.562;10.038;2023-04-07T02:52:11;101773.84;;;6.43;46.73
29941;BME280;16801;53.562;10.038;2023-04-07T02:55:33;101771.81;;;6.47;47.32
29941;BME280;16801;53.562;10.038;2023-04-07T02:58:55;101772.91;;;6.44;46.73
29941;BME280;16801;53.562;10.038;2023-04-07T03:02:16;101780.41;;;6.38;46.75
29941;BME280;16801;53.562;10.038;2023-04-07T03:05:37;101778.94;;;6.34;47.13
29941;BME280;16801;53.562;10.038;2023-04-07T03:08:58;101779.09;;;6.32;46.88
29941;BME280;16801;53.562;10.038;2023-04-07T03:12:21;101778.38;;;6.30;47.43
29941;BME280;16801;53.562;10.038;2023-04-07T03:15:42;101784.56;;;6.29;47.09
29941;BME280;16801;53.562;10.038;2023-04-07T03:19:04;101779.09;;;6.32;46.68
29941;BME280;16801;53.562;10.038;2023-04-07T03:22:28;101777.53;;;6.30;46.88
29941;BME280;16801;53.562;10.038;2023-04-07T03:25:49;101778.38;;;6.30;46.68
29941;BME280;16801;53.562;10.038;2023-04-07T03:29:12;101786.72;;;6.24;46.64
29941;BME280;16801;53.562;10.038;2023-04-07T03:32:35;101788.22;;;6.15;47.00
29941;BME280;16801;53.562;10.038;2023-04-07T03:35:56;101788.50;;;6.24;47.03
29941;BME280;16801;53.562;10.038;2023-04-07T03:39:18;101785.63;;;6.27;46.87
29941;BME280;16801;53.562;10.038;2023-04-07T03:42:39;101787.66;;;6.23;46.77
29941;BME280;16801;53.562;10.038;2023-04-07T03:46:02;101793.84;;;6.22;46.38
29941;BME280;16801;53.562;10.038;2023-04-07T03:49:24;101794.91;;;6.20;47.04
29941;BME280;16801;53.562;10.038;2023-04-07T03:52:45;101797.75;;;6.16;46.37
29941;BME280;16801;53.562;10.038;2023-04-07T03:56:15;101808.97;;;6.07;46.71
29941;BME280;16801;53.562;10.038;2023-04-07T03:59:42;101807.91;;;6.10;46.45
29941;BME280;16801;53.562;10.038;2023-04-07T04:03:05;101802.28;;;6.14;46.18
29941;BME280;16801;53.562;10.038;2023-04-07T04:06:28;101800.72;;;6.12;46.71
29941;BME280;16801;53.562;10.038;2023-04-07T04:09:58;101805.13;;;6.11;46.42
29941;BME280;16801;53.562;10.038;2023-04-07T04:13:19;101810.97;;;6.04;46.53
29941;BME280;16801;53.562;10.038;2023-04-07T04:16:41;101803.94;;;6.04;46.81
29941;BME280;16801;53.562;10.038;2023-04-07T04:20:17;101812.25;;;5.98;47.08
29941;BME280;16801;53.562;10.038;2023-04-07T04:23:41;101816.94;;;6.06;47.04
29941;BME280;16801;53.562;10.038;2023-04-07T04:27:02;101817.28;;;6.01;46.50
29941;BME280;16801;53.562;10.038;2023-04-07T04:30:25;101819.28;;;5.98;46.48
29941;BME280;16801;53.562;10.038;2023-04-07T04:33:53;101825.19;;;5.89;47.12
29941;BME280;16801;53.562;10.038;2023-04-07T04:37:18;101824.88;;;5.93;46.72
29941;BME280;16801;53.562;10.038;2023-04-07T04:40:39;101837.13;;;5.93;46.58
29941;BME280;16801;53.562;10.038;2023-04-07T04:44:00;101825.19;;;5.89;47.06
29941;BME280;16801;53.562;10.038;2023-04-07T04:47:23;101831.28;;;5.89;46.42
29941;BME280;16801;53.562;10.038;2023-04-07T04:50:44;101838.06;;;5.92;47.13
29941;BME280;16801;53.562;10.038;2023-04-07T04:54:11;101845.22;;;5.90;46.62
29941;BME280;16801;53.562;10.038;2023-04-07T04:57:33;101845.09;;;5.91;46.88
29941;BME280;16801;53.562;10.038;2023-04-07T05:00:57;101850.34;;;5.91;46.92
29941;BME280;16801;53.562;10.038;2023-04-07T05:04:28;101847.72;;;5.91;46.82
29941;BME280;16801;53.562;10.038;2023-04-07T05:07:55;101852.75;;;5.94;47.05
29941;BME280;16801;53.562;10.038;2023-04-07T05:11:21;101854.63;;;5.92;46.25
29941;BME280;16801;53.562;10.038;2023-04-07T05:14:45;101869.31;;;5.95;46.76
29941;BME280;16801;53.562;10.038;2023-04-07T05:18:06;101865.00;;;5.94;46.84
29941;BME280;16801;53.562;10.038;2023-04-07T05:21:27;101868.75;;;6.13;46.36
29941;BME280;16801;53.562;10.038;2023-04-07T05:24:53;101878.19;;;6.16;46.30
29941;BME280;16801;53.562;10.038;2023-04-07T05:28:15;101874.06;;;6.36;48.25
29941;BME280;16801;53.562;10.038;2023-04-07T05:31:36;101876.81;;;6.34;46.22
29941;BME280;16801;53.562;10.038;2023-04-07T05:35:04;101879.78;;;6.30;46.25
29941;BME280;16801;53.562;10.038;2023-04-07T05:38:28;101887.19;;;6.36;46.06
29941;BME280;16801;53.562;10.038;2023-04-07T05:41:53;101882.78;;;6.36;45.84
29941;BME280;16801;53.562;10.038;2023-04-07T05:45:19;101892.09;;;6.40;45.93
29941;BME280;16801;53.562;10.038;2023-04-07T05:48:43;101893.63;;;6.43;45.65
29941;BME280;16801;53.562;10.038;2023-04-07T05:52:04;101894.03;;;6.49;45.50
29941;BME280;16801;53.562;10.038;2023-04-07T05:55:29;101901.06;;;6.60;45.19
29941;BME280;16801;53.562;10.038;2023-04-07T05:58:51;101909.16;;;6.57;44.85
29941;BME280;16801;53.562;10.038;2023-04-07T06:02:13;101905.34;;;6.61;45.12
29941;BME280;16801;53.562;10.038;2023-04-07T06:05:36;101910.50;;;6.63;44.54
29941;BME280;16801;53.562;10.038;2023-04-07T06:09:03;101916.44;;;6.54;44.99
29941;BME280;16801;53.562;10.038;2023-04-07T06:12:25;101909.66;;;6.51;44.58
29941;BME280;16801;53.562;10.038;2023-04-07T06:15:46;101912.38;;;6.61;45.08
29941;BME280;16801;53.562;10.038;2023-04-07T06:19:08;101917.91;;;6.80;44.36
29941;BME280;16801;53.562;10.038;2023-04-07T06:22:29;101929.59;;;6.87;44.56
29941;BME280;16801;53.562;10.038;2023-04-07T06:25:50;101928.41;;;6.91;44.79
29941;BME280;16801;53.562;10.038;2023-04-07T06:29:11;101928.78;;;6.98;44.45
29941;BME280;16801;53.562;10.038;2023-04-07T06:32:32;101937.84;;;7.05;43.87
29941;BME280;16801;53.562;10.038;2023-04-07T06:35:55;101942.75;;;7.20;44.26
29941;BME280;16801;53.562;10.038;2023-04-07T06:39:16;101950.38;;;7.12;43.21
29941;BME280;16801;53.562;10.038;2023-04-07T06:42:37;101944.56;;;7.20;42.98
29941;BME280;16801;53.562;10.038;2023-04-07T06:46:04;101947.63;;;7.36;42.92
29941;BME280;16801;53.562;10.038;2023-04-07T06:49:25;101951.06;;;7.48;42.99
29941;BME280;16801;53.562;10.038;2023-04-07T06:52:47;101947.88;;;7.44;42.82
29941;BME280;16801;53.562;10.038;2023-04-07T06:56:10;101947.97;;;7.65;42.53
29941;BME280;16801;53.562;10.038;2023-04-07T06:59:31;101949.59;;;7.77;42.43
29941;BME280;16801;53.562;10.038;2023-04-07T07:02:51;101952.78;;;7.92;41.63
29941;BME280;16801;53.562;10.038;2023-04-07T07:06:15;101965.56;;;7.97;41.71
29941;BME280;16801;53.562;10.038;2023-04-07T07:09:38;101947.28;;;7.95;40.52
29941;BME280;16801;53.562;10.038;2023-04-07T07:12:58;101957.78;;;7.95;40.93
29941;BME280;16801;53.562;10.038;2023-04-07T07:16:20;101956.56;;;8.10;40.48
29941;BME280;16801;53.562;10.038;2023-04-07T07:19:42;101956.16;;;8.15;39.90
29941;BME280;16801;53.562;10.038;2023-04-07T07:23:03;101956.38;;;8.23;40.22
29941;BME280;16801;53.562;10.038;2023-04-07T07:26:26;101950.34;;;8.43;39.68
29941;BME280;16801;53.562;10.038;2023-04-07T07:29:47;101960.81;;;8.54;39.62
29941;BME280;16801;53.562;10.038;2023-04-07T07:33:08;101963.38;;;8.66;39.17
29941;BME280;16801;53.562;10.038;2023-04-07T07:36:29;101962.88;;;8.72;39.58
29941;BME280;16801;53.562;10.038;2023-04-07T07:39:50;101969.47;;;8.87;39.16
29941;BME280;16801;53.562;10.038;2023-04-07T07:43:13;101971.19;;;9.28;44.62
29941;BME280;16801;53.562;10.038;2023-04-07T07:46:34;101971.16;;;9.18;37.99
29941;BME280;16801;53.562;10.038;2023-04-07T07:49:55;101978.25;;;9.18;38.26
29941;BME280;16801;53.562;10.038;2023-04-07T07:53:16;101978.31;;;9.37;37.84
29941;BME280;16801;53.562;10.038;2023-04-07T07:56:37;101984.41;;;9.38;37.49
29941;BME280;16801;53.562;10.038;2023-04-07T07:59:59;101981.72;;;9.28;37.29
29941;BME280;16801;53.562;10.038;2023-04-07T08:03:20;101986.03;;;9.29;37.31
29941;BME280;16801;53.562;10.038;2023-04-07T08:06:44;101994.59;;;9.52;37.24
29941;BME280;16801;53.562;10.038;2023-04-07T08:10:06;101986.59;;;9.63;36.99
29941;BME280;16801;53.562;10.038;2023-04-07T08:13:26;101992.06;;;9.81;36.53
29941;BME280;16801;53.562;10.038;2023-04-07T08:16:49;101993.19;;;9.88;36.34
29941;BME280;16801;53.562;10.038;2023-04-07T08:20:10;102001.63;;;9.82;35.74
29941;BME280;16801;53.562;10.038;2023-04-07T08:23:31;102000.13;;;9.89;35.75
29941;BME280;16801;53.562;10.038;2023-04-07T08:26:52;102008.19;;;9.97;36.14
29941;BME280;16801;53.562;10.038;2023-04-07T08:30:13;102010.81;;;9.97;35.06
29941;BME280;16801;53.562;10.038;2023-04-07T08:33:35;102003.03;;;9.95;34.38
29941;BME280;16801;53.562;10.038;2023-04-07T08:36:56;102008.00;;;10.58;50.87
29941;BME280;16801;53.562;10.038;2023-04-07T08:40:17;102008.25;;;10.65;40.82
29941;BME280;16801;53.562;10.038;2023-04-07T08:43:38;102024.56;;;11.16;44.80
29941;BME280;16801;53.562;10.038;2023-04-07T08:47:00;102006.97;;;11.35;44.68
29941;BME280;16801;53.562;10.038;2023-04-07T08:50:26;102005.00;;;11.46;36.65
29941;BME280;16801;53.562;10.038;2023-04-07T08:53:48;102001.13;;;11.68;42.55
29941;BME280;16801;53.562;10.038;2023-04-07T08:57:09;102007.75;;;12.09;35.19
29941;BME280;16801;53.562;10.038;2023-04-07T09:00:30;102002.22;;;12.03;38.38
29941;BME280;16801;53.562;10.038;2023-04-07T09:03:52;101991.47;;;12.22;36.33
29941;BME280;16801;53.562;10.038;2023-04-07T09:07:14;101995.81;;;11.78;32.48
29941;BME280;16801;53.562;10.038;2023-04-07T09:10:35;102001.38;;;12.02;35.21
29941;BME280;16801;53.562;10.038;2023-04-07T09:13:57;101997.13;;;11.91;37.49
29941;BME280;16801;53.562;10.038;2023-04-07T09:17:20;102003.81;;;12.31;37.94
29941;BME280;16801;53.562;10.038;2023-04-07T09:20:58;102008.56;;;12.45;37.43
29941;BME280;16801;53.562;10.038;2023-04-07T09:24:23;102002.22;;;12.20;31.77
29941;BME280;16801;53.562;10.038;2023-04-07T09:27:54;102006.38;;;12.23;35.57
29941;BME280;16801;53.562;10.038;2023-04-07T09:31:15;102001.03;;;12.32;34.25
29941;BME280;16801;53.562;10.038;2023-04-07T09:34:37;101991.72;;;12.11;31.00
29941;BME280;16801;53.562;10.038;2023-04-07T09:38:03;101991.25;;;11.70;31.03
29941;BME280;16801;53.562;10.038;2023-04-07T09:41:26;101982.38;;;11.61;31.42
29941;BME280;16801;53.562;10.038;2023-04-07T09:44:47;101990.03;;;12.10;32.09
29941;BME280;16801;53.562;10.038;2023-04-07T09:48:17;101987.63;;;12.34;31.33
29941;BME280;16801;53.562;10.038;2023-04-07T09:51:51;101991.03;;;12.26;30.63
29941;BME280;16801;53.562;10.038;2023-04-07T09:55:12;101987.63;;;12.34;30.62
29941;BME280;16801;53.562;10.038;2023-04-07T09:58:37;101985.19;;;12.58;30.03
29941;BME280;16801;53.562;10.038;2023-04-07T10:01:58;101985.94;;;12.94;29.94
29941;BME280;16801;53.562;10.038;2023-04-07T10:05:19;101988.38;;;12.62;28.49
29941;BME280;16801;53.562;10.038;2023-04-07T10:08:42;101991.69;;;12.64;28.59
29941;BME280;16801;53.562;10.038;2023-04-07T10:12:03;101994.91;;;12.76;29.03
29941;BME280;16801;53.562;10.038;2023-04-07T10:15:27;101985.09;;;12.94;28.61
29941;BME280;16801;53.562;10.038;2023-04-07T10:18:48;101988.97;;;12.56;28.75
29941;BME280;16801;53.562;10.038;2023-04-07T10:22:11;101987.38;;;12.89;29.36
29941;BME280;16801;53.562;10.038;2023-04-07T10:25:38;101986.44;;;13.16;28.56
29941;BME280;16801;53.562;10.038;2023-04-07T10:29:03;101988.34;;;13.31;28.44
29941;BME280;16801;53.562;10.038;2023-04-07T10:32:27;101994.06;;;13.19;27.12
29941;BME280;16801;53.562;10.038;2023-04-07T10:36:05;102002.66;;;12.95;26.02
29941;BME280;16801;53.562;10.038;2023-04-07T10:39:26;101999.47;;;12.83;26.63
29941;BME280;16801;53.562;10.038;2023-04-07T10:42:47;102001.00;;;12.94;26.90
29941;BME280;16801;53.562;10.038;2023-04-07T10:46:08;102004.03;;;13.51;27.91
29941;BME280;16801;53.562;10.038;2023-04-07T10:49:31;101995.66;;;13.80;26.80
29941;BME280;16801;53.562;10.038;2023-04-07T10:53:04;101994.78;;;14.37;26.79
29941;BME280;16801;53.562;10.038;2023-04-07T10:57:08;101992.81;;;14.80;25.44
29941;BME280;16801;53.562;10.038;2023-04-07T11:00:30;101996.66;;;14.45;25.39
29941;BME280;16801;53.562;10.038;2023-04-07T11:03:56;102000.13;;;14.62;26.52
29941;BME280;16801;53.562;10.038;2023-04-07T11:07:49;101994.38;;;15.22;25.36
29941;BME280;16801;53.562;10.038;2023-04-07T11:11:11;101993.75;;;15.12;25.93
29941;BME280;16801;53.562;10.038;2023-04-07T11:14:33;101992.28;;;15.01;26.64
29941;BME280;16801;53.562;10.038;2023-04-07T11:18:09;101990.31;;;16.12;25.54
29941;BME280;16801;53.562;10.038;2023-04-07T11:21:29;101985.09;;;17.17;23.91
29941;BME280;16801;53.562;10.038;2023-04-07T11:24:51;101975.25;;;20.78;19.52
29941;BME280;16801;53.562;10.038;2023-04-07T11:28:13;101987.28;;;22.55;17.19
29941;BME280;16801;53.562;10.038;2023-04-07T11:31:34;101982.50;;;24.44;15.19
29941;BME280;16801;53.562;10.038;2023-04-07T11:34:56;101968.91;;;25.73;13.68
29941;BME280;16801;53.562;10.038;2023-04-07T11:38:17;101987.41;;;26.26;12.48
29941;BME280;16801;53.562;10.038;2023-04-07T11:41:47;101986.63;;;27.80;12.04
29941;BME280;16801;53.562;10.038;2023-04-07T11:45:15;101977.13;;;26.56;11.31
29941;BME280;16801;53.562;10.038;2023-04-07T11:48:38;101990.41;;;27.35;11.08
29941;BME280;16801;53.562;10.038;2023-04-07T11:52:04;101981.19;;;29.18;10.35
29941;BME280;16801;53.562;10.038;2023-04-07T11:55:26;101989.81;;;29.67;9.37
29941;BME280;16801;53.562;10.038;2023-04-07T11:58:50;101985.78;;;29.80;9.27
29941;BME280;16801;53.562;10.038;2023-04-07T12:02:11;101982.56;;;30.39;8.78
29941;BME280;16801;53.562;10.038;2023-04-07T12:05:50;101987.88;;;29.52;8.65
29941;BME280;16801;53.562;10.038;2023-04-07T12:09:25;101984.47;;;30.33;8.94
29941;BME280;16801;53.562;10.038;2023-04-07T12:12:47;101994.28;;;32.04;7.61
29941;BME280;16801;53.562;10.038;2023-04-07T12:16:10;101988.56;;;30.66;7.65
29941;BME280;16801;53.562;10.038;2023-04-07T12:19:31;101985.44;;;29.51;8.54
29941;BME280;16801;53.562;10.038;2023-04-07T12:22:56;101983.38;;;30.14;8.17
29941;BME280;16801;53.562;10.038;2023-04-07T12:26:18;101980.81;;;31.73;7.66
29941;BME280;16801;53.562;10.038;2023-04-07T12:29:40;101993.28;;;31.40;8.24
29941;BME280;16801;53.562;10.038;2023-04-07T12:33:04;101994.94;;;29.48;9.18
29941;BME280;16801;53.562;10.038;2023-04-07T12:36:24;101988.19;;;31.03;8.21
29941;BME280;16801;53.562;10.038;2023-04-07T12:39:46;102000.25;;;30.51;8.67
29941;BME280;16801;53.562;10.038;2023-04-07T12:43:06;102000.09;;;28.92;9.34
29941;BME280;16801;53.562;10.038;2023-04-07T12:46:27;102005.06;;;29.68;8.86
29941;BME280;16801;53.562;10.038;2023-04-07T12:49:50;101998.66;;;30.66;8.70
29941;BME280;16801;53.562;10.038;2023-04-07T12:53:11;101993.19;;;29.22;8.99
29941;BME280;16801;53.562;10.038;2023-04-07T12:56:32;101994.28;;;28.79;9.16
29941;BME280;16801;53.562;10.038;2023-04-07T12:59:53;101997.75;;;28.69;10.06
29941;BME280;16801;53.562;10.038;2023-04-07T13:03:13;101994.97;;;29.53;8.67
29941;BME280;16801;53.562;10.038;2023-04-07T13:06:36;101997.50;;;29.18;9.00
29941;BME280;16801;53.562;10.038;2023-04-07T13:09:57;101988.78;;;29.88;9.19
29941;BME280;16801;53.562;10.038;2023-04-07T13:13:17;101978.22;;;30.38;9.00
29941;BME280;16801;53.562;10.038;2023-04-07T13:16:40;101992.69;;;31.92;7.69
29941;BME280;16801;53.562;10.038;2023-04-07T13:20:05;101978.44;;;29.96;8.68
29941;BME280;16801;53.562;10.038;2023-04-07T13:23:27;101980.91;;;29.82;9.53
29941;BME280;16801;53.562;10.038;2023-04-07T13:26:48;101983.94;;;30.16;9.29
29941;BME280;16801;53.562;10.038;2023-04-07T13:30:11;101973.84;;;30.06;9.57
29941;BME280;16801;53.562;10.038;2023-04-07T13:33:33;101988.84;;;30.70;8.38
29941;BME280;16801;53.562;10.038;2023-04-07T13:36:54;101991.41;;;29.48;9.52
29941;BME280;16801;53.562;10.038;2023-04-07T13:40:16;101987.94;;;29.83;9.20
29941;BME280;16801;53.562;10.038;2023-04-07T13:43:37;101993.72;;;28.40;11.02
29941;BME280;16801;53.562;10.038;2023-04-07T13:46:58;102001.06;;;28.12;10.89
29941;BME280;16801;53.562;10.038;2023-04-07T13:50:19;102003.53;;;27.21;12.19
29941;BME280;16801;53.562;10.038;2023-04-07T13:53:39;101997.84;;;27.01;12.12
29941;BME280;16801;53.562;10.038;2023-04-07T13:57:02;101999.31;;;26.92;12.83
29941;BME280;16801;53.562;10.038;2023-04-07T14:00:23;101996.69;;;27.57;11.53
29941;BME280;16801;53.562;10.038;2023-04-07T14:03:43;101986.66;;;27.85;11.82
29941;BME280;16801;53.562;10.038;2023-04-07T14:07:05;101989.03;;;26.94;13.35
29941;BME280;16801;53.562;10.038;2023-04-07T14:10:26;101986.38;;;26.77;13.26
29941;BME280;16801;53.562;10.038;2023-04-07T14:13:49;101982.31;;;25.56;14.77
29941;BME280;16801;53.562;10.038;2023-04-07T14:17:10;101984.13;;;23.92;18.23
29941;BME280;16801;53.562;10.038;2023-04-07T14:20:31;101990.94;;;23.95;18.98
29941;BME280;16801;53.562;10.038;2023-04-07T14:23:52;101989.59;;;22.20;20.06
29941;BME280;16801;53.562;10.038;2023-04-07T14:27:13;101991.25;;;21.82;22.04
29941;BME280;16801;53.562;10.038;2023-04-07T14:30:40;101982.94;;;21.91;22.25
29941;BME280;16801;53.562;10.038;2023-04-07T14:34:01;101990.31;;;21.64;22.96
29941;BME280;16801;53.562;10.038;2023-04-07T14:37:22;101997.25;;;21.27;23.49
29941;BME280;16801;53.562;10.038;2023-04-07T14:40:44;101995.69;;;20.46;25.66
29941;BME280;16801;53.562;10.038;2023-04-07T14:44:06;102015.47;;;19.71;26.68
29941;BME280;16801;53.562;10.038;2023-04-07T14:47:28;102010.53;;;17.93;29.86
29941;BME280;16801;53.562;10.038;2023-04-07T14:50:49;102026.22;;;17.07;31.60
29941;BME280;16801;53.562;10.038;2023-04-07T14:54:09;102024.09;;;16.65;33.09
29941;BME280;16801;53.562;10.038;2023-04-07T14:57:31;102026.91;;;15.87;34.43
29941;BME280;16801;53.562;10.038;2023-04-07T15:00:52;102023.38;;;15.64;35.17
29941;BME280;16801;53.562;10.038;2023-04-07T15:04:14;102030.16;;;15.03;36.18
29941;BME280;16801;53.562;10.038;2023-04-07T15:07:34;102036.31;;;14.95;36.71
29941;BME280;16801;53.562;10.038;2023-04-07T15:10:55;102045.22;;;14.29;38.93
29941;BME280;16801;53.562;10.038;2023-04-07T15:14:16;102037.06;;;14.15;39.20
29941;BME280;16801;53.562;10.038;2023-04-07T15:17:37;102041.31;;;14.42;38.93
29941;BME280;16801;53.562;10.038;2023-04-07T15:20:59;102042.66;;;14.46;38.71
29941;BME280;16801;53.562;10.038;2023-04-07T15:24:20;102055.31;;;14.10;39.52
29941;BME280;16801;53.562;10.038;2023-04-07T15:27:41;102059.78;;;14.09;39.75
29941;BME280;16801;53.562;10.038;2023-04-07T15:31:02;102058.13;;;14.00;40.23
29941;BME280;16801;53.562;10.038;2023-04-07T15:34:26;102054.03;;;14.22;39.48
29941;BME280;16801;53.562;10.038;2023-04-07T15:37:49;102067.00;;;13.49;41.27
29941;BME280;16801;53.562;10.038;2023-04-07T15:41:13;102065.81;;;13.17;42.17
29941;BME280;16801;53.562;10.038;2023-04-07T15:44:35;102073.31;;;13.56;41.28
29941;BME280;16801;53.562;10.038;2023-04-07T15:47:58;102069.16;;;13.87;40.51
29941;BME280;16801;53.562;10.038;2023-04-07T15:51:19;102078.53;;;13.31;42.04
29941;BME280;16801;53.562;10.038;2023-04-07T15:54:41;102075.50;;;13.26;42.13
29941;BME280;16801;53.562;10.038;2023-04-07T15:58:02;102077.72;;;12.95;42.91
29941;BME280;16801;53.562;10.038;2023-04-07T16:01:23;102085.97;;;12.75;43.46
29941;BME280;16801;53.562;10.038;2023-04-07T16:04:44;102079.03;;;12.74;44.20
29941;BME280;16801;53.562;10.038;2023-04-07T16:08:06;102091.81;;;12.60;44.71
29941;BME280;16801;53.562;10.038;2023-04-07T16:11:28;102091.44;;;12.38;45.27
29941;BME280;16801;53.562;10.038;2023-04-07T16:14:49;102084.53;;;12.45;45.38
29941;BME280;16801;53.562;10.038;2023-04-07T16:18:10;102094.00;;;12.47;45.71
29941;BME280;16801;53.562;10.038;2023-04-07T16:21:31;102095.53;;;12.22;46.54
29941;BME280;16801;53.562;10.038;2023-04-07T16:24:52;102090.19;;;11.87;47.23
29941;BME280;16801;53.562;10.038;2023-04-07T16:28:14;102100.72;;;11.96;46.90
29941;BME280;16801;53.562;10.038;2023-04-07T16:31:35;102103.59;;;11.66;47.97
29941;BME280;16801;53.562;10.038;2023-04-07T16:34:56;102109.56;;;11.78;47.99
29941;BME280;16801;53.562;10.038;2023-04-07T16:38:17;102111.75;;;11.92;47.41
29941;BME280;16801;53.562;10.038;2023-04-07T16:41:38;102110.84;;;11.54;48.58
29941;BME280;16801;53.562;10.038;2023-04-07T16:45:00;102115.28;;;11.63;48.70
29941;BME280;16801;53.562;10.038;2023-04-07T16:48:21;102119.03;;;11.71;48.48
29941;BME280;16801;53.562;10.038;2023-04-07T16:51:42;102128.56;;;11.35;49.25
29941;BME280;16801;53.562;10.038;2023-04-07T16:55:04;102126.66;;;11.17;49.82
29941;BME280;16801;53.562;10.038;2023-04-07T16:58:25;102131.38;;;10.85;50.83
29941;BME280;16801;53.562;10.038;2023-04-07T17:01:47;102136.97;;;10.91;50.67
29941;BME280;16801;53.562;10.038;2023-04-07T17:05:08;102147.81;;;11.17;50.30
29941;BME280;16801;53.562;10.038;2023-04-07T17:08:29;102145.31;;;11.16;50.11
29941;BME280;16801;53.562;10.038;2023-04-07T17:11:50;102152.94;;;11.19;50.64
29941;BME280;16801;53.562;10.038;2023-04-07T17:15:11;102151.03;;;11.02;50.97
29941;BME280;16801;53.562;10.038;2023-04-07T17:18:33;102159.88;;;10.72;52.35
29941;BME280;16801;53.562;10.038;2023-04-07T17:21:54;102167.78;;;10.62;53.03
29941;BME280;16801;53.562;10.038;2023-04-07T17:25:15;102172.78;;;10.55;53.21
29941;BME280;16801;53.562;10.038;2023-04-07T17:28:35;102167.25;;;10.58;53.43
29941;BME280;16801;53.562;10.038;2023-04-07T17:31:56;102174.44;;;10.47;54.26
29941;BME280;16801;53.562;10.038;2023-04-07T17:35:19;102176.66;;;10.51;53.87